Latest Weather Observations for Yunta

IDS60801

Issued at 9:51 pm CST Thursday 24 September 2020 (issued every 10 minutes, with the page automatically refreshed every 10 minutes)

About weather observations | Map of weather stations | Latest weather observations for SA | Other Formats
Station Details ID: 020062 Name: YUNTA AIRSTRIP Lat: -32.57 Lon: 139.56 Height: 300.0 m
Data from the previous 72 hours. | See also: Recent months at Yunta
Date/Time
CST
Temp
°C
App
Temp
°C
Dew
Point
°C
Rel
Hum
%
Delta-T
°C
Wind Press
QNH
hPa
Press
MSL
hPa
Rain since
9am
mm
Dir  Spd
km/h
Gust
km/h
Spd
kts
Gust
kts
24/09:30pm 10.8 5.1 6.9 77 1.9 WNW 26 35 14 19 1010.6 1010.3 0.2
24/09:00pm 11.2 5.5 6.7 74 2.2 WNW 26 33 14 18 1010.9 1010.6 0.2
24/08:30pm 10.9 5.6 7.0 77 1.9 WNW 24 32 13 17 1011.2 1010.9 0.2
24/08:00pm 10.9 5.3 7.0 77 1.9 WNW 26 37 14 20 1011.5 1011.2 0.2
24/07:30pm 10.9 5.0 7.4 79 1.7 W 28 33 15 18 1011.6 1011.3 0.0
24/07:00pm 11.2 4.0 7.5 78 1.8 W 35 50 19 27 1011.6 1011.3 0.0
24/06:30pm 12.1 5.3 7.0 71 2.5 W 32 43 17 23 1011.4 1011.1 0.0
24/06:08pm 14.1 5.8 4.4 52 4.5 W 37 61 20 33 1010.9 1010.6 0.0
24/06:06pm 14.4 6.3 3.2 47 5.1 WNW 35 50 19 27 1010.7 1010.4 0.0
24/06:00pm 15.2 6.8 1.7 40 6.0 WNW 35 44 19 24 1010.6 1010.3 0.0
24/05:30pm 15.8 8.6 0.8 36 6.6 NW 28 39 15 21 1010.7 1010.4 0.0
24/05:00pm 15.7 7.7 0.3 35 6.7 WNW 32 43 17 23 1010.6 1010.3 0.0
24/04:30pm 16.0 8.0 0.6 35 6.8 WNW 32 43 17 23 1010.7 1010.4 0.0
24/04:00pm 15.9 7.9 0.5 35 6.7 NW 32 44 17 24 1011.0 1010.7 0.0
24/03:30pm 16.0 8.3 -0.2 33 7.0 WNW 30 43 16 23 1011.4 1011.1 0.0
24/03:05pm 16.4 8.7 0.1 33 7.1 WNW 30 50 16 27 1011.8 1011.5 0.0
24/03:00pm 15.8 8.8 -0.8 32 7.1 WNW 26 37 14 20 1012.2 1011.9 0.0
24/02:30pm 16.1 8.3 -0.6 32 7.2 W 30 41 16 22 1012.4 1012.1 0.0
24/02:00pm 15.3 7.2 -0.4 34 6.7 W 32 39 17 21 1013.2 1012.9 0.0
24/01:43pm 15.2 7.8 -0.5 34 6.7 W 28 48 15 26 1013.7 1013.4 0.0
24/01:30pm 15.3 7.5 -0.9 33 6.8 W 30 43 16 23 1013.9 1013.6 0.0
24/01:00pm 14.5 7.5 -0.8 35 6.4 W 26 37 14 20 1014.3 1014.0 0.0
24/12:30pm 14.9 8.3 -0.4 35 6.5 WNW 24 37 13 20 1014.9 1014.7 0.0
24/12:00pm 14.3 7.8 0.2 38 6.0 W 24 43 13 23 1015.6 1015.3 0.0
24/11:30am 13.2 6.2 -0.4 39 5.7 WNW 26 35 14 19 1016.0 1015.7 0.0
24/11:00am 12.3 5.8 0.4 44 5.0 W 24 33 13 18 1016.7 1016.4 0.0
24/10:30am 12.8 7.2 0.9 44 5.1 WNW 20 30 11 16 1017.4 1017.1 0.0
24/10:00am 11.7 5.2 0.5 46 4.7 W 24 33 13 18 1018.0 1017.8 0.0
24/09:30am 12.1 6.1 0.8 46 4.8 WNW 22 30 12 16 1018.4 1018.2 0.0
24/09:00am 11.4 5.5 1.6 51 4.2 WNW 22 30 12 16 1018.4 1018.2 0.0
24/08:30am 11.0 6.1 4.9 66 2.8 WNW 20 32 11 17 1018.8 1018.6 0.0
24/08:00am 10.6 6.0 5.8 72 2.3 WNW 19 24 10 13 1018.8 1018.6 0.0
24/07:30am 9.9 7.3 5.9 76 1.9 WSW 9 20 5 11 1018.6 1018.4 0.0
24/07:00am 7.1 4.6 4.8 85 1.0 WSW 7 9 4 5 1018.5 1018.3 0.0
24/06:30am 6.0 3.0 4.2 88 0.8 WSW 9 11 5 6 1018.4 1018.2 0.0
24/06:00am 5.4 2.7 3.7 89 0.7 WSW 7 9 4 5 1018.1 1017.9 0.0
24/05:30am 5.5 3.0 3.5 87 0.8 WSW 6 7 3 4 1018.2 1018.0 0.0
24/05:00am 5.5 2.4 3.7 88 0.8 WSW 9 11 5 6 1018.2 1018.0 0.0
24/04:30am 5.3 2.8 3.5 88 0.8 WSW 6 7 3 4 1018.2 1018.0 0.0
24/04:00am 5.7 2.6 3.7 87 0.9 WSW 9 9 5 5 1018.1 1017.9 0.0
24/03:30am 6.1 3.6 3.9 86 0.9 WSW 6 6 3 3 1018.1 1017.9 0.0
24/03:00am 6.5 3.1 4.2 85 1.0 WSW 11 11 6 6 1018.3 1018.1 0.0
24/02:30am 7.1 4.5 4.4 83 1.2 WSW 7 9 4 5 1018.6 1018.4 0.0
24/02:00am 7.6 4.4 4.9 83 1.2 WSW 11 13 6 7 1019.3 1019.0 0.0
24/01:30am 7.2 4.7 4.5 83 1.2 WSW 7 9 4 5 1019.3 1019.0 0.0
24/01:00am 7.4 5.0 4.5 82 1.3 WSW 6 9 3 5 1019.6 1019.3 0.0
24/12:30am 8.0 5.1 4.6 79 1.5 WSW 9 11 5 6 1019.8 1019.5 0.0
24/12:00am 8.4 5.5 4.6 77 1.7 WSW 9 9 5 5 1020.1 1019.8 0.0
 
Date/Time
CST
Temp
°C
App
Temp
°C
Dew
Point
°C
Rel
Hum
%
Delta-T
°C
Wind Press
QNH
hPa
Press
MSL
hPa
Rain since
9am
mm
Dir  Spd
km/h
Gust
km/h
Spd
kts
Gust
kts
23/11:30pm 9.3 6.4 4.7 73 2.1 WSW 9 11 5 6 1020.3 1020.0 0.0
23/11:00pm 9.7 6.4 4.5 70 2.4 WSW 11 15 6 8 1020.3 1020.0 0.0
23/10:30pm 10.1 6.4 4.3 67 2.6 WSW 13 17 7 9 1020.3 1020.0 0.0
23/10:00pm 10.5 7.1 4.0 64 2.9 WSW 11 15 6 8 1020.6 1020.4 0.0
23/09:30pm 10.7 6.9 4.0 63 3.0 WSW 13 15 7 8 1020.6 1020.4 0.0
23/09:00pm 11.1 7.7 3.9 61 3.2 SW 11 15 6 8 1020.6 1020.4 0.0
23/08:30pm 11.3 8.6 3.6 59 3.5 SW 7 9 4 5 1020.4 1020.1 0.0
23/08:00pm 12.0 7.7 3.3 55 3.9 SW 15 19 8 10 1020.2 1019.9 0.0
23/07:30pm 12.6 7.9 3.3 53 4.2 SW 17 20 9 11 1020.2 1019.9 0.0
23/07:00pm 13.1 8.0 3.2 51 4.5 SW 19 26 10 14 1020.1 1019.8 0.0
23/06:30pm 13.6 7.6 3.4 50 4.6 SW 24 32 13 17 1019.8 1019.5 0.0
23/06:00pm 14.3 7.6 3.5 48 5.0 SW 28 35 15 19 1019.4 1019.1 0.0
23/05:30pm 15.3 7.7 2.8 43 5.7 SW 32 41 17 22 1019.1 1018.8 0.0
23/05:00pm 16.1 8.3 2.9 41 6.1 WSW 33 43 18 23 1018.6 1018.4 0.0
23/04:30pm 16.7 8.7 0.4 33 7.2 WSW 32 41 17 22 1018.1 1017.9 0.0
23/04:00pm 16.8 9.4 2.0 37 6.7 SW 30 39 16 21 1017.9 1017.7 0.0
23/03:30pm 16.8 8.7 1.3 35 6.9 WSW 33 48 18 26 1018.0 1017.8 0.0
23/03:24pm 17.4 9.9 1.0 33 7.3 WSW 30 48 16 26 1017.8 1017.6 0.0
23/03:00pm 17.0 9.0 0.2 32 7.4 WSW 32 46 17 25 1017.8 1017.6 0.0
23/02:30pm 17.4 9.2 0.6 32 7.5 WSW 33 46 18 25 1017.8 1017.6 0.0
23/02:00pm 17.1 9.3 -0.6 30 7.7 WSW 30 44 16 24 1018.2 1018.0 0.0
23/01:30pm 16.9 9.6 0.1 32 7.3 WSW 28 39 15 21 1018.4 1018.2 0.0
23/01:00pm 16.7 9.3 -0.5 31 7.4 WSW 28 44 15 24 1018.8 1018.6 0.0
23/12:30pm 17.0 10.1 0.2 32 7.4 WSW 26 39 14 21 1018.8 1018.6 0.0
23/12:00pm 16.5 9.9 -0.2 32 7.2 WSW 24 37 13 20 1019.3 1019.0 0.0
23/11:30am 15.8 8.5 0.0 34 6.8 W 28 41 15 22 1019.6 1019.3 0.0
23/11:07am 15.5 8.3 0.9 37 6.4 WSW 28 54 15 29 1019.5 1019.2 0.0
23/11:00am 15.1 8.7 0.9 38 6.2 WSW 24 41 13 22 1019.7 1019.4 0.0
23/10:30am 14.1 7.6 0.4 39 5.9 WSW 24 35 13 19 1020.2 1019.9 0.0
23/10:00am 13.6 6.4 0.9 42 5.5 WSW 28 37 15 20 1020.1 1019.8 0.0
23/09:30am 12.9 5.6 2.5 49 4.6 W 30 44 16 24 1020.2 1019.9 0.0
23/09:00am 12.6 6.4 4.1 56 3.9 W 26 32 14 17 1020.3 1020.0 0.0
23/08:30am 12.2 6.8 4.7 60 3.5 W 22 32 12 17 1020.4 1020.1 0.0
23/08:00am 11.4 7.2 5.7 68 2.7 WNW 17 22 9 12 1020.1 1019.8 0.0
23/07:30am 10.6 6.4 5.6 71 2.3 W 17 20 9 11 1019.9 1019.6 0.0
23/07:00am 10.3 6.1 5.5 72 2.2 W 17 22 9 12 1019.7 1019.4 0.0
23/06:30am 9.7 5.8 5.3 74 2.0 WSW 15 19 8 10 1019.3 1019.0 0.0
23/06:00am 8.9 5.3 4.9 76 1.8 WSW 13 19 7 10 1019.0 1018.7 0.0
23/05:30am 8.7 5.8 4.5 75 1.9 WSW 9 13 5 7 1018.5 1018.3 0.0
23/05:00am 8.3 4.6 4.3 76 1.8 SW 13 17 7 9 1018.3 1018.1 0.0
23/04:30am 8.0 4.7 4.6 79 1.5 SW 11 13 6 7 1018.0 1017.8 0.0
23/04:00am 8.1 5.2 4.5 78 1.6 SW 9 11 5 6 1017.8 1017.6 0.0
23/03:30am 8.7 5.4 4.7 76 1.8 SW 11 15 6 8 1017.9 1017.7 0.0
23/03:00am 8.5 6.0 4.5 76 1.8 SW 7 9 4 5 1018.0 1017.8 0.0
23/02:30am 9.7 7.1 4.3 69 2.4 SW 7 13 4 7 1018.1 1017.9 0.0
23/02:00am 9.8 7.3 4.6 70 2.4 SW 7 9 4 5 1018.3 1018.1 0.0
23/01:30am 9.9 7.4 4.7 70 2.4 SW 7 9 4 5 1018.3 1018.1 0.0
23/01:00am 10.9 7.7 5.0 67 2.7 SW 11 15 6 8 1018.3 1018.1 0.0
23/12:30am 11.1 7.9 5.2 67 2.7 SW 11 13 6 7 1018.3 1018.1 0.0
23/12:00am 11.5 7.9 5.2 65 2.9 SW 13 26 7 14 1018.4 1018.2 0.0
 
Date/Time
CST
Temp
°C
App
Temp
°C
Dew
Point
°C
Rel
Hum
%
Delta-T
°C
Wind Press
QNH
hPa
Press
MSL
hPa
Rain since
9am
mm
Dir  Spd
km/h
Gust
km/h
Spd
kts
Gust
kts
22/11:30pm 12.1 8.5 4.8 61 3.4 SW 13 20 7 11 1018.5 1018.3 0.0
22/11:00pm 11.9 8.2 4.6 61 3.4 SW 13 17 7 9 1018.4 1018.2 0.0
22/10:30pm 12.1 8.3 3.9 57 3.7 SW 13 17 7 9 1018.2 1018.0 0.0
22/10:00pm 12.9 7.7 3.8 54 4.2 SW 20 28 11 15 1018.0 1017.8 0.0
22/09:30pm 13.5 8.4 4.1 53 4.3 SW 20 26 11 14 1018.0 1017.8 0.0
22/09:00pm 14.7 10.7 5.0 52 4.6 W 15 19 8 10 1017.5 1017.2 0.0
22/08:30pm 14.5 9.7 4.5 51 4.7 W 19 30 10 16 1017.3 1017.0 0.0
22/08:00pm 14.9 12.0 4.9 51 4.8 WSW 9 15 5 8 1017.2 1016.9 0.0
22/07:30pm 14.8 10.4 4.5 50 4.9 WSW 17 24 9 13 1016.6 1016.3 0.0
22/07:00pm 15.1 9.9 5.3 52 4.7 WSW 22 30 12 16 1016.2 1015.9 0.0
22/06:30pm 16.2 10.6 3.6 43 5.9 WSW 22 32 12 17 1015.6 1015.3 0.0
22/06:00pm 16.4 9.8 2.1 38 6.5 W 26 35 14 19 1015.0 1014.8 0.0
22/05:30pm 16.8 9.7 1.3 35 7.0 W 28 37 15 20 1014.7 1014.5 0.0
22/05:00pm 17.0 9.4 0.6 33 7.3 W 30 37 16 20 1014.6 1014.3 0.0
22/04:30pm 17.3 9.6 0.0 31 7.6 W 30 39 16 21 1014.4 1014.1 0.0
22/04:00pm 18.4 10.2 0.1 29 8.1 W 33 48 18 26 1014.1 1013.8 0.0
22/03:30pm 18.4 11.6 1.0 31 7.9 W 26 41 14 22 1014.0 1013.7 0.0
22/03:00pm 18.1 10.1 0.3 30 7.9 W 32 44 17 24 1014.1 1013.8 0.0
22/02:30pm 18.1 11.0 1.6 33 7.5 W 28 41 15 22 1014.1 1013.8 0.0
22/02:00pm 17.5 10.4 1.1 33 7.4 W 28 59 15 32 1014.2 1013.9 0.0
22/01:53pm 18.1 11.0 1.2 32 7.6 WNW 28 46 15 25 1014.1 1013.8 0.0
22/01:30pm 17.9 11.1 1.0 32 7.6 W 26 41 14 22 1014.1 1013.8 0.0
22/01:00pm 17.6 9.5 1.2 33 7.4 W 33 43 18 23 1014.3 1014.0 0.0
22/12:30pm 16.8 9.4 1.7 36 6.8 W 30 39 16 21 1014.4 1014.1 0.0
22/12:00pm 16.7 8.9 1.6 36 6.8 W 32 46 17 25 1014.6 1014.3 0.0
22/11:30am 15.9 8.1 1.6 38 6.4 W 32 46 17 25 1014.9 1014.7 0.0
22/11:00am 15.4 7.5 2.2 41 6.0 W 33 46 18 25 1014.9 1014.7 0.0
22/10:30am 14.9 6.6 2.1 42 5.7 W 35 48 19 26 1014.9 1014.7 0.0
22/10:00am 14.6 6.8 3.1 46 5.3 W 33 44 18 24 1014.9 1014.7 0.0
22/09:30am 14.1 5.2 3.0 47 5.0 WNW 39 48 21 26 1014.7 1014.5 0.0
22/09:00am 13.6 6.0 3.7 51 4.5 WNW 33 46 18 25 1014.7 1014.5 0.0
22/08:30am 12.6 5.2 3.8 55 4.0 WNW 32 41 17 22 1014.7 1014.5 0.0
22/08:00am 12.0 5.7 3.8 57 3.7 WNW 26 37 14 20 1014.4 1014.1 0.0
22/07:30am 11.6 6.1 3.9 59 3.5 WNW 22 32 12 17 1013.8 1013.5 0.0
22/07:00am 11.1 5.2 4.1 62 3.2 WNW 24 32 13 17 1013.2 1012.9 0.0
22/06:30am 10.6 4.4 4.5 66 2.8 WNW 26 33 14 18 1012.9 1012.6 0.0
22/06:00am 10.6 5.6 4.5 66 2.8 WNW 20 28 11 15 1013.1 1012.8 0.0
22/05:30am 11.0 6.7 5.1 67 2.7 NW 17 26 9 14 1012.7 1012.4 0.0
22/05:00am 10.5 6.5 5.1 69 2.5 NW 15 19 8 10 1012.4 1012.1 0.0
22/04:30am 10.8 7.2 4.9 67 2.7 WNW 13 17 7 9 1012.0 1011.7 0.0
22/04:00am 10.8 6.8 4.9 67 2.7 WNW 15 20 8 11 1011.6 1011.3 0.0
22/03:30am 11.0 6.1 5.1 67 2.7 WNW 20 28 11 15 1011.5 1011.2 0.0
22/03:00am 11.2 6.5 5.1 66 2.8 W 19 26 10 14 1011.6 1011.3 0.0
22/02:30am 11.0 7.1 5.5 69 2.6 W 15 22 8 12 1011.6 1011.3 0.0
22/02:00am 11.5 5.9 5.4 66 2.9 W 24 33 13 18 1011.2 1010.9 0.0
22/01:30am 11.8 6.2 5.4 65 3.0 W 24 32 13 17 1011.3 1011.0 0.0
22/01:00am 12.3 7.1 5.7 64 3.1 W 22 28 12 15 1011.5 1011.2 0.0
22/12:30am 12.8 8.2 5.5 61 3.5 W 19 26 10 14 1011.8 1011.5 0.0
22/12:00am 13.3 7.3 5.2 58 3.8 WNW 26 39 14 21 1011.1 1010.8 0.0
 
Date/Time
CST
Temp
°C
App
Temp
°C
Dew
Point
°C
Rel
Hum
%
Delta-T
°C
Wind Press
QNH
hPa
Press
MSL
hPa
Rain since
9am
mm
Dir  Spd
km/h
Gust
km/h
Spd
kts
Gust
kts
21/11:30pm 13.8 7.4 5.2 56 4.1 WNW 28 39 15 21 1010.9 1010.6 0.0
21/11:00pm 14.2 8.5 6.6 60 3.7 WNW 26 35 14 19 1011.1 1010.8 0.0
21/10:30pm 14.3 10.6 7.8 65 3.3 WNW 17 28 9 15 1011.3 1011.0 0.0
21/10:00pm 14.0 10.3 7.8 66 3.1 W 17 22 9 12 1011.3 1011.0 0.0

Other formats

Comma delimited format used in spreadsheet applications
http://www.bom.gov.au/fwo/IDS60801/IDS60801.94684.axf

JavaScript Object Notation format (JSON) in row-major order
http://www.bom.gov.au/fwo/IDS60801/IDS60801.94684.json

Data quality

Most of these data are generated automatically and are frequently updated. Quality checks on data are not normally performed. It is possible for incorrect values to appear. Refer to information at About Latest Weather Observations and please check the disclaimer before using these data.